Schedule Details

Flight Number: ASX138X
Departure: Tromsø Airport (ENTC) at 00:00
Arrival: Gdansk im. Lecha Walesy (EPGD) at 00:00
Route: ROSKO M609 BDO T63 BAMIP P600 NETAV L199 GEVRU N133 DOMAG T240 OGDAV

Weather Information
ENTC 180620Z 16002KT CAVOK M12/M14 Q1022 RMK WIND 2600FT 02004KT
EPGD 180630Z 29002KT 8000 SCT041 M03/M04 Q1026

Schedule Frequency

Route Map